Umbarger, Texas
Current Conditions -  °F | °C
As of 10:15 PM on Wednesday 26 Nov 2014 (Local Time) from KHRX Reporting Station
Clear Clear  
Wind Chill: 28°   Ceiling: Unl
Heat Index: 32°   Visibility: 10mi
Dew Point: 26°   Wind: 5mph
Humidity: 78%   Direction: 40°NE
Pressure: 30.39"   Gusts: NA
Location:  34.95°N, 102.11°W
Report Text: KHRX 270415Z AUTO 04004KT 10SM CLR 00/M03 A3039 RMK AO2 T00011034
Loading
Personal Weather Stations






























Interactive Weather Map New forecast layout! Learn more

10-Day Weather Forecast

Advertisements
Track Severe Weather on mobile